sensor_id;sensor_type;location;lat;lon;timestamp;temperature;humidity
71523;HTU21D;59343;51.102;5.884;2023-03-16T00:00:24;6.95;66.72
71523;HTU21D;59343;51.102;5.884;2023-03-16T00:02:50;6.98;66.60
71523;HTU21D;59343;51.102;5.884;2023-03-16T00:05:16;7.00;66.57
71523;HTU21D;59343;51.102;5.884;2023-03-16T00:07:42;7.00;66.65
71523;HTU21D;59343;51.102;5.884;2023-03-16T00:10:10;7.03;66.65
71523;HTU21D;59343;51.102;5.884;2023-03-16T00:12:37;7.02;66.55
71523;HTU21D;59343;51.102;5.884;2023-03-16T00:15:03;7.05;66.53
71523;HTU21D;59343;51.102;5.884;2023-03-16T00:17:29;7.07;66.59
71523;HTU21D;59343;51.102;5.884;2023-03-16T00:19:56;7.10;66.32
71523;HTU21D;59343;51.102;5.884;2023-03-16T00:22:28;7.10;66.36
71523;HTU21D;59343;51.102;5.884;2023-03-16T00:24:55;7.11;66.22
71523;HTU21D;59343;51.102;5.884;2023-03-16T00:27:23;7.10;66.32
71523;HTU21D;59343;51.102;5.884;2023-03-16T00:29:51;7.11;66.31
71523;HTU21D;59343;51.102;5.884;2023-03-16T00:32:26;7.14;66.44
71523;HTU21D;59343;51.102;5.884;2023-03-16T00:34:52;7.13;66.44
71523;HTU21D;59343;51.102;5.884;2023-03-16T00:37:19;7.12;66.30
71523;HTU21D;59343;51.102;5.884;2023-03-16T00:39:48;7.13;66.20
71523;HTU21D;59343;51.102;5.884;2023-03-16T00:42:16;7.12;66.27
71523;HTU21D;59343;51.102;5.884;2023-03-16T00:44:43;7.12;66.34
71523;HTU21D;59343;51.102;5.884;2023-03-16T00:47:11;7.12;66.22
71523;HTU21D;59343;51.102;5.884;2023-03-16T00:49:42;7.13;66.27
71523;HTU21D;59343;51.102;5.884;2023-03-16T00:52:11;7.14;66.05
71523;HTU21D;59343;51.102;5.884;2023-03-16T00:54:41;7.13;66.08
71523;HTU21D;59343;51.102;5.884;2023-03-16T00:57:09;7.14;66.00
71523;HTU21D;59343;51.102;5.884;2023-03-16T00:59:36;7.16;66.03
71523;HTU21D;59343;51.102;5.884;2023-03-16T01:02:05;7.15;65.97
71523;HTU21D;59343;51.102;5.884;2023-03-16T01:04:31;7.15;66.09
71523;HTU21D;59343;51.102;5.884;2023-03-16T01:06:59;7.16;66.14
71523;HTU21D;59343;51.102;5.884;2023-03-16T01:09:24;7.18;65.99
71523;HTU21D;59343;51.102;5.884;2023-03-16T01:11:50;7.18;66.11
71523;HTU21D;59343;51.102;5.884;2023-03-16T01:14:20;7.19;66.22
71523;HTU21D;59343;51.102;5.884;2023-03-16T01:16:47;7.22;66.24
71523;HTU21D;59343;51.102;5.884;2023-03-16T01:19:13;7.22;66.35
71523;HTU21D;59343;51.102;5.884;2023-03-16T01:21:40;7.23;66.30
71523;HTU21D;59343;51.102;5.884;2023-03-16T01:24:08;7.25;66.39
71523;HTU21D;59343;51.102;5.884;2023-03-16T01:26:35;7.23;66.60
71523;HTU21D;59343;51.102;5.884;2023-03-16T01:29:01;7.22;66.65
71523;HTU21D;59343;51.102;5.884;2023-03-16T01:31:27;7.23;66.71
71523;HTU21D;59343;51.102;5.884;2023-03-16T01:33:54;7.23;66.75
71523;HTU21D;59343;51.102;5.884;2023-03-16T01:36:24;7.19;66.82
71523;HTU21D;59343;51.102;5.884;2023-03-16T01:38:54;7.19;66.86
71523;HTU21D;59343;51.102;5.884;2023-03-16T01:41:20;7.19;67.08
71523;HTU21D;59343;51.102;5.884;2023-03-16T01:43:47;7.16;67.20
71523;HTU21D;59343;51.102;5.884;2023-03-16T01:46:17;7.15;67.19
71523;HTU21D;59343;51.102;5.884;2023-03-16T01:48:55;7.12;67.30
71523;HTU21D;59343;51.102;5.884;2023-03-16T01:54:27;7.04;67.53
71523;HTU21D;59343;51.102;5.884;2023-03-16T01:57:10;7.03;67.70
71523;HTU21D;59343;51.102;5.884;2023-03-16T02:02:08;6.97;67.91
71523;HTU21D;59343;51.102;5.884;2023-03-16T02:04:43;6.95;68.09
71523;HTU21D;59343;51.102;5.884;2023-03-16T02:07:12;6.96;68.21
71523;HTU21D;59343;51.102;5.884;2023-03-16T02:09:45;6.94;68.39
71523;HTU21D;59343;51.102;5.884;2023-03-16T02:12:15;6.93;68.53
71523;HTU21D;59343;51.102;5.884;2023-03-16T02:14:50;6.91;68.61
71523;HTU21D;59343;51.102;5.884;2023-03-16T02:17:21;6.90;68.75
71523;HTU21D;59343;51.102;5.884;2023-03-16T02:22:51;6.93;68.87
71523;HTU21D;59343;51.102;5.884;2023-03-16T02:25:23;6.94;69.06
71523;HTU21D;59343;51.102;5.884;2023-03-16T02:28:11;6.94;69.16
71523;HTU21D;59343;51.102;5.884;2023-03-16T02:30:41;6.94;69.23
71523;HTU21D;59343;51.102;5.884;2023-03-16T02:33:08;6.93;69.25
71523;HTU21D;59343;51.102;5.884;2023-03-16T02:35:34;6.95;69.47
71523;HTU21D;59343;51.102;5.884;2023-03-16T02:38:01;6.96;69.52
71523;HTU21D;59343;51.102;5.884;2023-03-16T02:40:33;6.98;69.52
71523;HTU21D;59343;51.102;5.884;2023-03-16T02:43:08;6.97;69.47
71523;HTU21D;59343;51.102;5.884;2023-03-16T02:45:52;6.99;69.51
71523;HTU21D;59343;51.102;5.884;2023-03-16T02:48:35;6.99;69.40
71523;HTU21D;59343;51.102;5.884;2023-03-16T02:51:04;6.99;69.48
71523;HTU21D;59343;51.102;5.884;2023-03-16T02:53:30;7.00;69.45
71523;HTU21D;59343;51.102;5.884;2023-03-16T02:55:58;6.99;69.47
71523;HTU21D;59343;51.102;5.884;2023-03-16T02:58:24;6.99;69.57
71523;HTU21D;59343;51.102;5.884;2023-03-16T03:00:50;6.99;69.46
71523;HTU21D;59343;51.102;5.884;2023-03-16T03:03:16;6.99;69.54
71523;HTU21D;59343;51.102;5.884;2023-03-16T03:05:43;6.98;69.58
71523;HTU21D;59343;51.102;5.884;2023-03-16T03:08:09;6.99;69.59
71523;HTU21D;59343;51.102;5.884;2023-03-16T03:10:35;6.98;69.64
71523;HTU21D;59343;51.102;5.884;2023-03-16T03:13:01;6.99;69.56
71523;HTU21D;59343;51.102;5.884;2023-03-16T03:15:27;6.99;69.67
71523;HTU21D;59343;51.102;5.884;2023-03-16T03:18:00;6.99;69.67
71523;HTU21D;59343;51.102;5.884;2023-03-16T03:20:29;6.98;69.76
71523;HTU21D;59343;51.102;5.884;2023-03-16T03:22:55;6.97;69.71
71523;HTU21D;59343;51.102;5.884;2023-03-16T03:25:21;6.94;69.95
71523;HTU21D;59343;51.102;5.884;2023-03-16T03:27:49;6.93;69.90
71523;HTU21D;59343;51.102;5.884;2023-03-16T03:30:20;6.91;69.99
71523;HTU21D;59343;51.102;5.884;2023-03-16T03:32:47;6.90;70.09
71523;HTU21D;59343;51.102;5.884;2023-03-16T03:35:14;6.87;70.19
71523;HTU21D;59343;51.102;5.884;2023-03-16T03:37:43;6.86;70.14
71523;HTU21D;59343;51.102;5.884;2023-03-16T03:40:12;6.86;70.20
71523;HTU21D;59343;51.102;5.884;2023-03-16T03:42:40;6.85;70.27
71523;HTU21D;59343;51.102;5.884;2023-03-16T03:45:07;6.85;70.48
71523;HTU21D;59343;51.102;5.884;2023-03-16T03:47:35;6.82;70.06
71523;HTU21D;59343;51.102;5.884;2023-03-16T03:50:03;6.84;69.90
71523;HTU21D;59343;51.102;5.884;2023-03-16T03:52:32;6.85;69.39
71523;HTU21D;59343;51.102;5.884;2023-03-16T03:54:58;6.87;69.15
71523;HTU21D;59343;51.102;5.884;2023-03-16T03:57:24;6.89;68.69
71523;HTU21D;59343;51.102;5.884;2023-03-16T03:59:50;6.94;68.18
71523;HTU21D;59343;51.102;5.884;2023-03-16T04:02:37;6.97;67.70
71523;HTU21D;59343;51.102;5.884;2023-03-16T04:05:06;7.00;67.24
71523;HTU21D;59343;51.102;5.884;2023-03-16T04:07:32;7.03;66.99
71523;HTU21D;59343;51.102;5.884;2023-03-16T04:10:02;7.07;66.76
71523;HTU21D;59343;51.102;5.884;2023-03-16T04:12:34;7.10;66.53
71523;HTU21D;59343;51.102;5.884;2023-03-16T04:15:00;7.12;66.34
71523;HTU21D;59343;51.102;5.884;2023-03-16T04:17:32;7.13;66.21
71523;HTU21D;59343;51.102;5.884;2023-03-16T04:19:59;7.18;66.06
71523;HTU21D;59343;51.102;5.884;2023-03-16T04:22:26;7.16;66.04
71523;HTU21D;59343;51.102;5.884;2023-03-16T04:24:55;7.16;66.09
71523;HTU21D;59343;51.102;5.884;2023-03-16T04:27:23;7.16;66.17
71523;HTU21D;59343;51.102;5.884;2023-03-16T04:29:49;7.16;66.20
71523;HTU21D;59343;51.102;5.884;2023-03-16T04:32:15;7.17;66.20
71523;HTU21D;59343;51.102;5.884;2023-03-16T04:34:42;7.18;66.22
71523;HTU21D;59343;51.102;5.884;2023-03-16T04:37:09;7.19;66.22
71523;HTU21D;59343;51.102;5.884;2023-03-16T04:39:41;7.20;66.19
71523;HTU21D;59343;51.102;5.884;2023-03-16T04:42:07;7.22;66.24
71523;HTU21D;59343;51.102;5.884;2023-03-16T04:44:33;7.20;66.26
71523;HTU21D;59343;51.102;5.884;2023-03-16T04:46:58;7.20;66.27
71523;HTU21D;59343;51.102;5.884;2023-03-16T04:49:30;7.22;66.27
71523;HTU21D;59343;51.102;5.884;2023-03-16T04:51:56;7.26;66.27
71523;HTU21D;59343;51.102;5.884;2023-03-16T04:54:22;7.24;66.30
71523;HTU21D;59343;51.102;5.884;2023-03-16T04:56:48;7.24;66.40
71523;HTU21D;59343;51.102;5.884;2023-03-16T04:59:40;7.23;66.43
71523;HTU21D;59343;51.102;5.884;2023-03-16T05:02:15;7.23;66.43
71523;HTU21D;59343;51.102;5.884;2023-03-16T05:04:42;7.27;66.52
71523;HTU21D;59343;51.102;5.884;2023-03-16T05:07:10;7.25;66.55
71523;HTU21D;59343;51.102;5.884;2023-03-16T05:09:38;7.24;66.58
71523;HTU21D;59343;51.102;5.884;2023-03-16T05:12:05;7.23;66.57
71523;HTU21D;59343;51.102;5.884;2023-03-16T05:14:32;7.25;66.47
71523;HTU21D;59343;51.102;5.884;2023-03-16T05:17:13;7.26;66.44
71523;HTU21D;59343;51.102;5.884;2023-03-16T05:19:40;7.25;66.55
71523;HTU21D;59343;51.102;5.884;2023-03-16T05:22:07;7.24;66.53
71523;HTU21D;59343;51.102;5.884;2023-03-16T05:24:34;7.24;66.54
71523;HTU21D;59343;51.102;5.884;2023-03-16T05:27:01;7.24;66.51
71523;HTU21D;59343;51.102;5.884;2023-03-16T05:29:29;7.24;66.58
71523;HTU21D;59343;51.102;5.884;2023-03-16T05:31:59;7.26;66.40
71523;HTU21D;59343;51.102;5.884;2023-03-16T05:34:26;7.28;66.36
71523;HTU21D;59343;51.102;5.884;2023-03-16T05:36:53;7.27;66.27
71523;HTU21D;59343;51.102;5.884;2023-03-16T05:39:20;7.28;66.32
71523;HTU21D;59343;51.102;5.884;2023-03-16T05:41:47;7.30;66.27
71523;HTU21D;59343;51.102;5.884;2023-03-16T05:44:22;7.32;66.14
71523;HTU21D;59343;51.102;5.884;2023-03-16T05:47:12;7.33;66.24
71523;HTU21D;59343;51.102;5.884;2023-03-16T05:49:42;7.37;66.15
71523;HTU21D;59343;51.102;5.884;2023-03-16T05:52:18;7.37;65.95
71523;HTU21D;59343;51.102;5.884;2023-03-16T05:54:44;7.38;65.92
71523;HTU21D;59343;51.102;5.884;2023-03-16T05:57:10;7.39;65.83
71523;HTU21D;59343;51.102;5.884;2023-03-16T05:59:37;7.37;65.83
71523;HTU21D;59343;51.102;5.884;2023-03-16T06:02:03;7.38;65.78
71523;HTU21D;59343;51.102;5.884;2023-03-16T06:04:30;7.40;65.76
71523;HTU21D;59343;51.102;5.884;2023-03-16T06:06:57;7.39;65.71
71523;HTU21D;59343;51.102;5.884;2023-03-16T06:09:25;7.40;65.78
71523;HTU21D;59343;51.102;5.884;2023-03-16T06:11:52;7.41;65.81
71523;HTU21D;59343;51.102;5.884;2023-03-16T06:14:19;7.42;65.70
71523;HTU21D;59343;51.102;5.884;2023-03-16T06:16:46;7.44;65.53
71523;HTU21D;59343;51.102;5.884;2023-03-16T06:19:13;7.43;65.56
71523;HTU21D;59343;51.102;5.884;2023-03-16T06:21:39;7.46;65.45
71523;HTU21D;59343;51.102;5.884;2023-03-16T06:24:08;7.45;65.38
71523;HTU21D;59343;51.102;5.884;2023-03-16T06:26:35;7.46;65.46
71523;HTU21D;59343;51.102;5.884;2023-03-16T06:29:03;7.47;65.37
71523;HTU21D;59343;51.102;5.884;2023-03-16T06:31:33;7.48;65.27
71523;HTU21D;59343;51.102;5.884;2023-03-16T06:34:00;7.48;65.30
71523;HTU21D;59343;51.102;5.884;2023-03-16T06:36:27;7.49;65.30
71523;HTU21D;59343;51.102;5.884;2023-03-16T06:38:57;7.55;65.27
71523;HTU21D;59343;51.102;5.884;2023-03-16T06:41:27;7.56;65.43
71523;HTU21D;59343;51.102;5.884;2023-03-16T06:43:56;7.63;65.37
71523;HTU21D;59343;51.102;5.884;2023-03-16T06:46:22;7.68;65.27
71523;HTU21D;59343;51.102;5.884;2023-03-16T06:48:49;7.72;65.18
71523;HTU21D;59343;51.102;5.884;2023-03-16T06:51:20;7.75;65.14
71523;HTU21D;59343;51.102;5.884;2023-03-16T06:53:47;7.82;65.06
71523;HTU21D;59343;51.102;5.884;2023-03-16T06:56:13;7.84;65.03
71523;HTU21D;59343;51.102;5.884;2023-03-16T06:58:41;7.88;65.02
71523;HTU21D;59343;51.102;5.884;2023-03-16T07:01:07;7.93;65.12
71523;HTU21D;59343;51.102;5.884;2023-03-16T07:03:33;8.00;65.35
71523;HTU21D;59343;51.102;5.884;2023-03-16T07:06:08;8.03;65.40
71523;HTU21D;59343;51.102;5.884;2023-03-16T07:08:34;8.03;65.65
71523;HTU21D;59343;51.102;5.884;2023-03-16T07:11:01;8.04;65.49
71523;HTU21D;59343;51.102;5.884;2023-03-16T07:13:26;8.04;65.57
71523;HTU21D;59343;51.102;5.884;2023-03-16T07:15:53;8.02;65.89
71523;HTU21D;59343;51.102;5.884;2023-03-16T07:18:21;8.05;65.90
71523;HTU21D;59343;51.102;5.884;2023-03-16T07:20:47;8.05;65.91
71523;HTU21D;59343;51.102;5.884;2023-03-16T07:23:14;8.06;66.00
71523;HTU21D;59343;51.102;5.884;2023-03-16T07:25:41;8.07;65.80
71523;HTU21D;59343;51.102;5.884;2023-03-16T07:28:08;8.07;65.75
71523;HTU21D;59343;51.102;5.884;2023-03-16T07:30:39;8.09;65.87
71523;HTU21D;59343;51.102;5.884;2023-03-16T07:33:08;8.12;66.17
71523;HTU21D;59343;51.102;5.884;2023-03-16T07:35:34;8.14;66.53
71523;HTU21D;59343;51.102;5.884;2023-03-16T07:38:00;8.16;66.75
71523;HTU21D;59343;51.102;5.884;2023-03-16T07:40:26;8.19;67.00
71523;HTU21D;59343;51.102;5.884;2023-03-16T07:42:58;8.18;66.90
71523;HTU21D;59343;51.102;5.884;2023-03-16T07:45:34;8.21;67.15
71523;HTU21D;59343;51.102;5.884;2023-03-16T07:48:01;8.23;67.40
71523;HTU21D;59343;51.102;5.884;2023-03-16T07:50:50;8.26;67.75
71523;HTU21D;59343;51.102;5.884;2023-03-16T07:53:17;8.27;67.74
71523;HTU21D;59343;51.102;5.884;2023-03-16T07:55:48;8.23;67.83
71523;HTU21D;59343;51.102;5.884;2023-03-16T07:58:14;8.21;68.02
71523;HTU21D;59343;51.102;5.884;2023-03-16T08:00:42;8.23;68.43
71523;HTU21D;59343;51.102;5.884;2023-03-16T08:03:08;8.27;68.87
71523;HTU21D;59343;51.102;5.884;2023-03-16T08:05:34;8.29;68.80
71523;HTU21D;59343;51.102;5.884;2023-03-16T08:08:04;8.32;69.08
71523;HTU21D;59343;51.102;5.884;2023-03-16T08:10:34;8.35;69.24
71523;HTU21D;59343;51.102;5.884;2023-03-16T08:13:07;8.39;69.36
71523;HTU21D;59343;51.102;5.884;2023-03-16T08:15:34;8.42;69.47
71523;HTU21D;59343;51.102;5.884;2023-03-16T08:18:08;8.48;69.46
71523;HTU21D;59343;51.102;5.884;2023-03-16T08:20:35;8.59;69.16
71523;HTU21D;59343;51.102;5.884;2023-03-16T08:23:01;8.65;69.11
71523;HTU21D;59343;51.102;5.884;2023-03-16T08:25:34;8.76;68.83
71523;HTU21D;59343;51.102;5.884;2023-03-16T08:28:10;8.88;68.66
71523;HTU21D;59343;51.102;5.884;2023-03-16T08:30:44;9.01;68.36
71523;HTU21D;59343;51.102;5.884;2023-03-16T08:33:29;9.11;68.07
71523;HTU21D;59343;51.102;5.884;2023-03-16T08:35:55;9.16;67.76
71523;HTU21D;59343;51.102;5.884;2023-03-16T08:38:21;9.20;67.32
71523;HTU21D;59343;51.102;5.884;2023-03-16T08:40:50;9.17;67.35
71523;HTU21D;59343;51.102;5.884;2023-03-16T08:43:18;9.19;67.35
71523;HTU21D;59343;51.102;5.884;2023-03-16T08:45:45;9.23;67.29
71523;HTU21D;59343;51.102;5.884;2023-03-16T08:48:13;9.34;66.88
71523;HTU21D;59343;51.102;5.884;2023-03-16T08:50:42;9.46;66.75
71523;HTU21D;59343;51.102;5.884;2023-03-16T08:53:10;9.56;65.93
71523;HTU21D;59343;51.102;5.884;2023-03-16T08:55:36;9.64;66.05
71523;HTU21D;59343;51.102;5.884;2023-03-16T08:58:02;9.71;65.90
71523;HTU21D;59343;51.102;5.884;2023-03-16T09:00:28;9.78;65.12
71523;HTU21D;59343;51.102;5.884;2023-03-16T09:02:54;9.79;64.66
71523;HTU21D;59343;51.102;5.884;2023-03-16T09:05:21;9.82;64.76
71523;HTU21D;59343;51.102;5.884;2023-03-16T09:07:48;9.89;64.48
71523;HTU21D;59343;51.102;5.884;2023-03-16T09:10:14;9.93;64.30
71523;HTU21D;59343;51.102;5.884;2023-03-16T09:12:44;9.96;63.82
71523;HTU21D;59343;51.102;5.884;2023-03-16T09:15:11;9.98;63.63
71523;HTU21D;59343;51.102;5.884;2023-03-16T09:17:38;9.99;63.25
71523;HTU21D;59343;51.102;5.884;2023-03-16T09:20:07;10.01;62.94
71523;HTU21D;59343;51.102;5.884;2023-03-16T09:22:46;10.07;62.86
71523;HTU21D;59343;51.102;5.884;2023-03-16T15:27:19;16.32;43.79
71523;HTU21D;59343;51.102;5.884;2023-03-16T15:29:46;16.32;43.74
71523;HTU21D;59343;51.102;5.884;2023-03-16T15:32:13;16.27;43.95
71523;HTU21D;59343;51.102;5.884;2023-03-16T15:34:43;16.20;44.10
71523;HTU21D;59343;51.102;5.884;2023-03-16T15:37:13;16.14;44.00
71523;HTU21D;59343;51.102;5.884;2023-03-16T15:39:40;16.12;44.16
71523;HTU21D;59343;51.102;5.884;2023-03-16T15:42:15;16.12;44.12
71523;HTU21D;59343;51.102;5.884;2023-03-16T15:44:41;16.08;44.25
71523;HTU21D;59343;51.102;5.884;2023-03-16T15:47:07;16.02;44.25
71523;HTU21D;59343;51.102;5.884;2023-03-16T15:49:34;16.02;44.19
71523;HTU21D;59343;51.102;5.884;2023-03-16T15:52:00;16.01;44.29
71523;HTU21D;59343;51.102;5.884;2023-03-16T15:54:26;16.02;44.19
71523;HTU21D;59343;51.102;5.884;2023-03-16T15:56:53;16.02;44.30
71523;HTU21D;59343;51.102;5.884;2023-03-16T15:59:22;16.01;44.29
71523;HTU21D;59343;51.102;5.884;2023-03-16T16:01:49;16.00;44.64
71523;HTU21D;59343;51.102;5.884;2023-03-16T16:04:18;15.99;44.72
71523;HTU21D;59343;51.102;5.884;2023-03-16T16:06:46;15.98;44.64
71523;HTU21D;59343;51.102;5.884;2023-03-16T16:09:13;15.99;44.65
71523;HTU21D;59343;51.102;5.884;2023-03-16T16:11:39;15.99;44.73
71523;HTU21D;59343;51.102;5.884;2023-03-16T16:14:11;15.97;44.80
71523;HTU21D;59343;51.102;5.884;2023-03-16T16:16:43;15.96;44.96
71523;HTU21D;59343;51.102;5.884;2023-03-16T16:19:14;15.96;44.89
71523;HTU21D;59343;51.102;5.884;2023-03-16T16:21:42;15.98;45.03
71523;HTU21D;59343;51.102;5.884;2023-03-16T16:24:09;15.93;44.89
71523;HTU21D;59343;51.102;5.884;2023-03-16T16:29:11;15.86;45.05
71523;HTU21D;59343;51.102;5.884;2023-03-16T16:31:38;15.87;45.06
71523;HTU21D;59343;51.102;5.884;2023-03-16T16:34:18;15.84;45.13
71523;HTU21D;59343;51.102;5.884;2023-03-16T16:36:47;15.80;45.38
71523;HTU21D;59343;51.102;5.884;2023-03-16T16:39:13;15.73;45.25
71523;HTU21D;59343;51.102;5.884;2023-03-16T16:41:41;15.68;45.24
71523;HTU21D;59343;51.102;5.884;2023-03-16T16:44:17;15.61;45.37
71523;HTU21D;59343;51.102;5.884;2023-03-16T16:46:43;15.59;45.58
71523;HTU21D;59343;51.102;5.884;2023-03-16T16:51:41;15.53;45.39
71523;HTU21D;59343;51.102;5.884;2023-03-16T16:54:23;15.46;45.28
71523;HTU21D;59343;51.102;5.884;2023-03-16T16:56:52;15.41;45.47
71523;HTU21D;59343;51.102;5.884;2023-03-16T16:59:20;15.39;45.51
71523;HTU21D;59343;51.102;5.884;2023-03-16T17:01:47;15.33;45.49
71523;HTU21D;59343;51.102;5.884;2023-03-16T17:04:19;15.31;45.46
71523;HTU21D;59343;51.102;5.884;2023-03-16T17:06:49;15.27;45.54
71523;HTU21D;59343;51.102;5.884;2023-03-16T17:09:28;15.24;45.72
71523;HTU21D;59343;51.102;5.884;2023-03-16T17:15:44;15.10;45.95
71523;HTU21D;59343;51.102;5.884;2023-03-16T17:18:33;14.99;46.26
71523;HTU21D;59343;51.102;5.884;2023-03-16T17:22:41;14.94;46.43
71523;HTU21D;59343;51.102;5.884;2023-03-16T17:37:29;14.63;48.08
71523;HTU21D;59343;51.102;5.884;2023-03-16T17:39:57;14.54;48.09
71523;HTU21D;59343;51.102;5.884;2023-03-16T17:42:24;14.47;48.12
71523;HTU21D;59343;51.102;5.884;2023-03-16T17:44:52;14.41;47.91
71523;HTU21D;59343;51.102;5.884;2023-03-16T17:47:26;14.35;47.75
71523;HTU21D;59343;51.102;5.884;2023-03-16T17:49:53;14.27;47.89
71523;HTU21D;59343;51.102;5.884;2023-03-16T17:52:22;14.23;48.03
71523;HTU21D;59343;51.102;5.884;2023-03-16T17:54:51;14.19;48.11
71523;HTU21D;59343;51.102;5.884;2023-03-16T17:57:23;14.15;48.23
71523;HTU21D;59343;51.102;5.884;2023-03-16T17:59:50;14.10;48.18
71523;HTU21D;59343;51.102;5.884;2023-03-16T18:05:01;14.01;48.35
71523;HTU21D;59343;51.102;5.884;2023-03-16T18:07:27;13.98;48.60
71523;HTU21D;59343;51.102;5.884;2023-03-16T18:09:53;13.95;48.76
71523;HTU21D;59343;51.102;5.884;2023-03-16T18:12:19;13.92;49.00
71523;HTU21D;59343;51.102;5.884;2023-03-16T18:14:45;13.88;49.30
71523;HTU21D;59343;51.102;5.884;2023-03-16T18:17:22;13.81;49.53
71523;HTU21D;59343;51.102;5.884;2023-03-16T18:19:51;13.76;49.54
71523;HTU21D;59343;51.102;5.884;2023-03-16T18:22:19;13.73;49.63
71523;HTU21D;59343;51.102;5.884;2023-03-16T18:24:48;13.67;49.96
71523;HTU21D;59343;51.102;5.884;2023-03-16T18:27:14;13.63;50.11
71523;HTU21D;59343;51.102;5.884;2023-03-16T18:29:41;13.58;50.44
71523;HTU21D;59343;51.102;5.884;2023-03-16T18:34:45;13.51;50.85
71523;HTU21D;59343;51.102;5.884;2023-03-16T18:37:18;13.48;50.87
71523;HTU21D;59343;51.102;5.884;2023-03-16T18:39:50;13.46;50.98
71523;HTU21D;59343;51.102;5.884;2023-03-16T18:42:18;13.41;51.24
71523;HTU21D;59343;51.102;5.884;2023-03-16T18:44:47;13.37;51.40
71523;HTU21D;59343;51.102;5.884;2023-03-16T18:47:19;13.31;51.56
71523;HTU21D;59343;51.102;5.884;2023-03-16T18:49:52;13.29;51.40
71523;HTU21D;59343;51.102;5.884;2023-03-16T18:52:43;13.25;51.66
71523;HTU21D;59343;51.102;5.884;2023-03-16T18:55:30;13.20;51.66
71523;HTU21D;59343;51.102;5.884;2023-03-16T18:58:16;13.17;51.90
71523;HTU21D;59343;51.102;5.884;2023-03-16T19:00:48;13.12;52.10
71523;HTU21D;59343;51.102;5.884;2023-03-16T21:39:26;10.92;60.46
71523;HTU21D;59343;51.102;5.884;2023-03-16T21:41:56;10.90;60.52
71523;HTU21D;59343;51.102;5.884;2023-03-16T21:44:33;10.92;60.60
71523;HTU21D;59343;51.102;5.884;2023-03-16T21:47:04;10.88;60.73
71523;HTU21D;59343;51.102;5.884;2023-03-16T21:49:38;10.88;60.85
71523;HTU21D;59343;51.102;5.884;2023-03-16T22:09:41;10.97;60.86
71523;HTU21D;59343;51.102;5.884;2023-03-16T23:23:31;10.59;61.90
71523;HTU21D;59343;51.102;5.884;2023-03-16T23:25:57;10.56;61.86
71523;HTU21D;59343;51.102;5.884;2023-03-16T23:28:23;10.55;61.86
71523;HTU21D;59343;51.102;5.884;2023-03-16T23:30:49;10.54;61.83
71523;HTU21D;59343;51.102;5.884;2023-03-16T23:33:15;10.50;61.79
71523;HTU21D;59343;51.102;5.884;2023-03-16T23:35:43;10.44;61.69
71523;HTU21D;59343;51.102;5.884;2023-03-16T23:38:11;10.43;61.56
71523;HTU21D;59343;51.102;5.884;2023-03-16T23:40:38;10.42;61.48
71523;HTU21D;59343;51.102;5.884;2023-03-16T23:43:04;10.42;61.38
71523;HTU21D;59343;51.102;5.884;2023-03-16T23:45:40;10.44;61.24
71523;HTU21D;59343;51.102;5.884;2023-03-16T23:48:12;10.43;61.14
71523;HTU21D;59343;51.102;5.884;2023-03-16T23:50:40;10.44;61.06
71523;HTU21D;59343;51.102;5.884;2023-03-16T23:53:12;10.44;61.06
71523;HTU21D;59343;51.102;5.884;2023-03-16T23:55:40;10.45;61.12
71523;HTU21D;59343;51.102;5.884;2023-03-16T23:58:07;10.42;61.16
